createdAt,value
2023-05-09T00:01:22.811Z,14.80
2023-05-09T00:03:51.434Z,14.80
2023-05-09T00:06:19.493Z,14.70
2023-05-09T00:08:46.250Z,14.80
2023-05-09T00:11:12.935Z,14.80
2023-05-09T00:13:39.706Z,14.80
2023-05-09T00:16:06.713Z,14.80
2023-05-09T00:18:33.982Z,14.70
2023-05-09T00:21:03.130Z,14.60
2023-05-09T00:23:30.963Z,14.50
2023-05-09T00:25:58.330Z,14.60
2023-05-09T00:28:24.971Z,14.60
2023-05-09T00:30:51.592Z,14.60
2023-05-09T00:33:19.002Z,14.60
2023-05-09T00:35:46.083Z,14.60
2023-05-09T00:38:13.270Z,14.50
2023-05-09T00:40:39.911Z,14.50
2023-05-09T00:43:06.732Z,14.40
2023-05-09T00:45:33.493Z,14.40
2023-05-09T00:48:00.237Z,14.30
2023-05-09T00:50:26.980Z,14.40
2023-05-09T00:52:53.715Z,14.20
2023-05-09T00:55:20.427Z,14.30
2023-05-09T00:57:47.027Z,14.30
2023-05-09T01:00:14.359Z,14.30
2023-05-09T01:02:47.690Z,14.30
2023-05-09T01:05:15.339Z,14.30
2023-05-09T01:08:07.687Z,14.10
2023-05-09T01:10:53.690Z,14.10
2023-05-09T01:13:44.327Z,12.10
2023-05-09T01:16:19.386Z,13.90
2023-05-09T01:18:51.060Z,14.00
2023-05-09T01:21:23.978Z,13.90
2023-05-09T01:24:20.730Z,13.90
2023-05-09T01:27:32.888Z,13.90
2023-05-09T01:30:02.378Z,13.90
2023-05-09T01:32:31.992Z,13.90
2023-05-09T01:35:02.680Z,13.80
2023-05-09T01:37:31.980Z,13.80
2023-05-09T01:40:04.668Z,13.60
2023-05-09T01:42:47.739Z,13.90
2023-05-09T01:45:15.703Z,13.80
2023-05-09T01:47:43.809Z,13.80
2023-05-09T01:50:12.631Z,13.80
2023-05-09T01:52:41.100Z,13.80
2023-05-09T01:55:08.919Z,13.70
2023-05-09T01:57:37.368Z,13.60
2023-05-09T02:00:08.023Z,13.60
2023-05-09T02:02:35.854Z,13.60
2023-05-09T02:05:03.232Z,13.60
2023-05-09T02:07:30.808Z,13.60
2023-05-09T02:09:59.062Z,13.60
2023-05-09T02:12:26.664Z,13.50
2023-05-09T02:14:53.418Z,13.60
2023-05-09T02:17:21.925Z,13.60
2023-05-09T02:19:48.534Z,13.50
2023-05-09T02:22:15.812Z,13.40
2023-05-09T02:24:45.278Z,13.50
2023-05-09T02:27:12.907Z,13.50
2023-05-09T02:29:47.407Z,13.40
2023-05-09T02:32:27.026Z,13.40
2023-05-09T02:34:55.537Z,13.40
2023-05-09T02:37:23.506Z,13.30
2023-05-09T02:39:50.394Z,13.40
2023-05-09T02:42:21.907Z,13.40
2023-05-09T02:44:48.574Z,13.30
2023-05-09T02:47:15.245Z,13.30
2023-05-09T02:49:41.907Z,13.30
2023-05-09T02:52:08.552Z,13.20
2023-05-09T02:54:35.160Z,13.20
2023-05-09T02:57:01.804Z,14.30
2023-05-09T02:59:28.610Z,13.20
2023-05-09T03:01:55.461Z,13.10
2023-05-09T03:04:22.164Z,13.10
2023-05-09T03:06:48.905Z,13.10
2023-05-09T03:09:15.524Z,13.10
2023-05-09T03:11:42.271Z,13.10
2023-05-09T03:14:10.626Z,13.00
2023-05-09T03:16:37.575Z,12.90
2023-05-09T03:19:04.252Z,12.90
2023-05-09T03:21:32.065Z,12.90
2023-05-09T03:23:59.003Z,12.90
2023-05-09T03:26:26.512Z,12.90
2023-05-09T03:28:53.150Z,12.80
2023-05-09T03:31:19.828Z,12.80
2023-05-09T03:33:46.546Z,12.90
2023-05-09T03:36:13.198Z,12.80
2023-05-09T03:38:39.777Z,12.80
2023-05-09T03:41:06.386Z,12.80
2023-05-09T03:43:32.990Z,12.80
2023-05-09T03:45:59.588Z,12.80
2023-05-09T03:48:26.203Z,12.80
2023-05-09T03:50:52.866Z,12.70
2023-05-09T03:53:20.383Z,12.70
2023-05-09T03:55:47.125Z,12.60
2023-05-09T03:58:14.700Z,12.50
2023-05-09T04:00:41.806Z,12.50
2023-05-09T04:03:08.601Z,12.50
2023-05-09T04:05:35.456Z,12.60
2023-05-09T04:08:02.577Z,12.60
2023-05-09T04:10:30.342Z,12.60
2023-05-09T04:12:57.050Z,12.60
2023-05-09T04:15:23.701Z,12.70
2023-05-09T04:17:50.401Z,12.60
2023-05-09T04:20:17.043Z,12.60
2023-05-09T04:22:45.403Z,12.50
2023-05-09T04:25:14.982Z,12.50
2023-05-09T04:27:41.816Z,12.60
2023-05-09T04:30:09.359Z,12.60
2023-05-09T04:32:36.849Z,12.50
2023-05-09T04:35:04.147Z,12.60
2023-05-09T04:37:32.751Z,12.60
2023-05-09T04:39:59.516Z,12.60
2023-05-09T04:42:26.274Z,12.60
2023-05-09T04:44:53.304Z,12.50
2023-05-09T04:47:19.943Z,12.50
2023-05-09T04:49:46.583Z,12.50
2023-05-09T04:52:13.227Z,12.50
2023-05-09T04:54:39.858Z,12.60
2023-05-09T04:57:17.417Z,12.50
2023-05-09T04:59:44.835Z,12.50
2023-05-09T05:02:11.504Z,12.60
2023-05-09T05:04:38.292Z,12.60
2023-05-09T05:07:05.305Z,12.60
2023-05-09T05:09:31.913Z,12.60
2023-05-09T05:12:02.441Z,12.60
2023-05-09T05:14:30.387Z,12.60
2023-05-09T05:16:57.034Z,12.70
2023-05-09T05:19:23.667Z,12.80
2023-05-09T05:21:50.368Z,13.00
2023-05-09T05:24:17.115Z,13.20
2023-05-09T05:26:43.824Z,13.70
2023-05-09T05:29:10.548Z,14.00
2023-05-09T05:31:37.318Z,14.20
2023-05-09T05:34:04.093Z,14.50
2023-05-09T05:36:32.124Z,14.30
2023-05-09T05:38:58.776Z,14.60
2023-05-09T05:41:26.326Z,14.70
2023-05-09T05:43:54.303Z,14.70
2023-05-09T05:46:21.453Z,14.50
2023-05-09T05:48:48.251Z,14.80
2023-05-09T05:51:14.983Z,14.80
2023-05-09T05:53:42.068Z,14.90
2023-05-09T05:56:08.798Z,15.00
2023-05-09T05:58:35.510Z,15.50
2023-05-09T06:01:02.471Z,15.70
2023-05-09T06:03:29.209Z,15.80
2023-05-09T06:05:56.462Z,15.40
2023-05-09T06:08:23.156Z,14.80
2023-05-09T06:10:49.756Z,14.30
2023-05-09T06:13:16.466Z,14.10
2023-05-09T06:15:43.144Z,13.90
2023-05-09T06:18:09.925Z,13.90
2023-05-09T06:20:36.567Z,13.90
2023-05-09T06:23:03.193Z,14.00
2023-05-09T06:25:29.823Z,14.00
2023-05-09T06:27:56.499Z,14.10
2023-05-09T06:30:26.842Z,15.00
2023-05-09T06:32:54.693Z,14.00
2023-05-09T06:35:21.781Z,14.10
2023-05-09T06:37:49.145Z,14.10
2023-05-09T06:40:16.560Z,14.20
2023-05-09T06:42:43.339Z,14.20
2023-05-09T06:45:10.636Z,14.20
2023-05-09T06:47:37.375Z,14.50
2023-05-09T06:50:04.238Z,14.50
2023-05-09T06:52:30.872Z,14.50
2023-05-09T06:54:57.460Z,14.50
2023-05-09T06:57:24.109Z,14.60
2023-05-09T06:59:50.732Z,14.60
2023-05-09T07:02:17.439Z,14.50
2023-05-09T07:04:44.141Z,14.60
2023-05-09T07:07:10.873Z,14.70
2023-05-09T07:09:37.548Z,14.80
2023-05-09T07:12:04.550Z,14.90
2023-05-09T07:14:31.274Z,15.00
2023-05-09T07:17:09.920Z,15.10
2023-05-09T07:19:44.646Z,15.30
2023-05-09T07:22:11.330Z,15.50
2023-05-09T07:24:37.930Z,15.60
2023-05-09T07:27:04.610Z,15.70
2023-05-09T07:29:31.339Z,15.70
2023-05-09T07:31:58.231Z,15.90
2023-05-09T07:34:25.449Z,16.00
2023-05-09T07:36:52.285Z,16.10
2023-05-09T07:39:19.010Z,16.00
2023-05-09T07:41:47.874Z,16.10
2023-05-09T07:44:15.850Z,16.20
2023-05-09T07:46:42.728Z,16.40
2023-05-09T07:49:09.580Z,16.40
2023-05-09T07:51:36.209Z,16.40
2023-05-09T07:54:02.934Z,16.50
2023-05-09T07:56:29.591Z,16.60
2023-05-09T07:58:56.240Z,16.80
2023-05-09T08:01:22.871Z,16.80
2023-05-09T08:03:49.660Z,16.90
2023-05-09T08:06:16.453Z,17.00
2023-05-09T08:08:43.064Z,17.10
2023-05-09T08:11:09.745Z,17.20
2023-05-09T08:13:36.753Z,17.30
2023-05-09T08:16:03.589Z,17.50
2023-05-09T08:18:30.336Z,17.60
2023-05-09T08:20:58.562Z,17.70
2023-05-09T08:23:26.248Z,17.60
2023-05-09T08:25:54.521Z,17.70
2023-05-09T08:28:24.085Z,17.80
2023-05-09T08:30:51.674Z,16.70
2023-05-09T08:33:18.335Z,18.10
2023-05-09T08:35:45.342Z,18.10
2023-05-09T08:38:11.945Z,18.10
2023-05-09T08:40:38.663Z,18.20
2023-05-09T08:43:07.122Z,18.30
2023-05-09T08:45:38.095Z,18.30
2023-05-09T08:48:06.570Z,18.30
2023-05-09T08:50:33.376Z,18.20
2023-05-09T08:53:00.072Z,18.40
2023-05-09T08:55:27.598Z,18.60
2023-05-09T08:57:54.363Z,18.60
2023-05-09T09:00:21.676Z,19.10
2023-05-09T09:02:49.097Z,19.10
2023-05-09T09:05:39.395Z,19.20
2023-05-09T09:08:05.361Z,19.30
2023-05-09T09:10:32.970Z,19.30
2023-05-09T09:13:00.791Z,19.60
2023-05-09T09:15:36.920Z,19.70
2023-05-09T09:18:10.073Z,19.70
2023-05-09T09:20:44.886Z,19.70
2023-05-09T09:23:12.690Z,19.60
2023-05-09T09:25:39.549Z,19.60
2023-05-09T09:28:06.433Z,19.60
2023-05-09T09:30:33.185Z,19.70
2023-05-09T09:33:00.452Z,19.70
2023-05-09T09:35:27.468Z,19.70
2023-05-09T09:38:00.121Z,19.70
2023-05-09T09:40:26.965Z,19.80
2023-05-09T09:42:53.664Z,19.70
2023-05-09T09:45:20.487Z,19.60
2023-05-09T09:47:48.849Z,19.60
2023-05-09T09:50:17.951Z,19.70
2023-05-09T09:52:57.631Z,19.70
2023-05-09T09:55:24.885Z,19.60
2023-05-09T09:57:52.145Z,19.70
2023-05-09T10:00:26.345Z,19.90
2023-05-09T10:02:55.209Z,19.90
2023-05-09T10:05:26.398Z,20.00
2023-05-09T10:08:01.892Z,20.10
2023-05-09T10:10:30.090Z,20.20
2023-05-09T10:12:58.733Z,20.40
2023-05-09T10:18:01.655Z,20.50
2023-05-09T10:20:29.302Z,20.50
2023-05-09T10:23:02.189Z,20.60
2023-05-09T10:25:42.136Z,20.80
2023-05-09T10:28:13.334Z,20.80
2023-05-09T10:31:09.190Z,20.80
2023-05-09T10:33:52.234Z,20.90
2023-05-09T10:36:20.878Z,21.00
2023-05-09T10:38:48.967Z,21.10
2023-05-09T10:41:17.055Z,21.10
2023-05-09T10:43:45.164Z,21.20
2023-05-09T10:46:13.249Z,20.90
2023-05-09T10:48:40.888Z,20.90
2023-05-09T10:51:08.611Z,21.00
2023-05-09T10:53:49.687Z,21.10
2023-05-09T10:56:43.369Z,21.20
2023-05-09T10:59:32.798Z,21.30
2023-05-09T11:02:01.175Z,21.40
2023-05-09T11:04:28.029Z,21.40
2023-05-09T11:06:55.849Z,21.50
2023-05-09T11:09:38.995Z,21.60
2023-05-09T11:12:05.826Z,21.70
2023-05-09T11:14:33.782Z,21.60
2023-05-09T11:17:05.134Z,21.70
2023-05-09T11:19:38.793Z,21.70
2023-05-09T11:22:15.661Z,21.70
2023-05-09T11:24:47.265Z,21.70
2023-05-09T11:27:24.236Z,21.70
2023-05-09T11:29:57.338Z,21.70
2023-05-09T11:32:44.297Z,21.70
2023-05-09T11:35:19.512Z,21.70
2023-05-09T11:38:00.335Z,21.70
2023-05-09T11:40:28.314Z,21.70
2023-05-09T11:42:58.357Z,21.70
2023-05-09T11:45:27.692Z,21.70
2023-05-09T11:47:54.540Z,21.80
2023-05-09T11:50:21.827Z,21.90
2023-05-09T11:52:49.511Z,21.90
2023-05-09T11:55:22.552Z,22.00
2023-05-09T11:57:51.599Z,22.10
2023-05-09T12:00:20.392Z,22.00
2023-05-09T12:02:47.707Z,22.00
2023-05-09T12:05:16.595Z,22.10
2023-05-09T12:07:43.546Z,22.10
2023-05-09T12:10:13.179Z,22.30
2023-05-09T12:12:50.992Z,22.30
2023-05-09T12:15:18.612Z,22.20
2023-05-09T12:17:49.636Z,22.20
2023-05-09T12:20:18.008Z,22.10
2023-05-09T12:22:44.651Z,22.10
2023-05-09T12:25:11.960Z,22.20
2023-05-09T12:27:40.250Z,22.20
2023-05-09T12:30:11.987Z,22.10
2023-05-09T12:32:40.304Z,22.00
2023-05-09T12:35:09.599Z,22.00
2023-05-09T12:37:36.382Z,22.00
2023-05-09T12:40:12.811Z,22.10
2023-05-09T12:42:42.912Z,22.30
2023-05-09T12:45:10.312Z,22.30
2023-05-09T12:47:38.946Z,22.20
2023-05-09T12:50:07.573Z,22.30
2023-05-09T12:52:39.621Z,22.40
2023-05-09T12:55:13.253Z,22.50
2023-05-09T12:57:41.794Z,22.40
2023-05-09T13:00:10.190Z,22.40
2023-05-09T13:02:43.304Z,22.50
2023-05-09T13:05:15.910Z,22.30
2023-05-09T13:07:45.897Z,22.20
2023-05-09T13:10:21.733Z,22.20
2023-05-09T13:12:49.244Z,22.30
2023-05-09T13:15:17.442Z,22.20
2023-05-09T13:17:44.393Z,22.40
2023-05-09T13:20:11.158Z,22.50
2023-05-09T13:22:38.026Z,22.40
2023-05-09T13:25:05.531Z,22.40
2023-05-09T13:27:33.347Z,22.40
2023-05-09T13:30:00.205Z,22.40
2023-05-09T13:32:27.348Z,22.50
2023-05-09T13:34:54.008Z,22.50
2023-05-09T13:37:21.632Z,22.70
2023-05-09T13:39:48.784Z,22.70
2023-05-09T13:42:17.279Z,22.50
2023-05-09T13:44:45.706Z,22.80
2023-05-09T13:47:12.449Z,22.60
2023-05-09T13:49:39.089Z,22.50
2023-05-09T13:52:06.629Z,22.60
2023-05-09T13:54:35.067Z,22.60
2023-05-09T13:57:03.662Z,22.50
2023-05-09T13:59:31.933Z,22.60
2023-05-09T14:01:59.989Z,20.90
2023-05-09T14:04:31.961Z,22.70
2023-05-09T14:06:59.812Z,22.70
2023-05-09T14:09:26.856Z,22.80
2023-05-09T14:11:53.934Z,22.90
2023-05-09T14:14:21.920Z,23.00
2023-05-09T14:16:49.621Z,23.00
2023-05-09T14:19:17.063Z,23.10
2023-05-09T14:21:44.478Z,23.00
2023-05-09T14:24:15.064Z,23.10
2023-05-09T14:26:42.738Z,23.50
2023-05-09T14:29:09.907Z,23.80
2023-05-09T14:31:37.011Z,24.00
2023-05-09T14:34:05.143Z,24.10
2023-05-09T14:36:34.864Z,24.20
2023-05-09T14:39:01.593Z,24.20
2023-05-09T14:41:28.254Z,24.10
2023-05-09T14:43:54.933Z,24.20
2023-05-09T14:46:22.690Z,24.00
2023-05-09T14:48:49.282Z,23.90
2023-05-09T14:51:15.886Z,24.00
2023-05-09T14:53:42.545Z,23.70
2023-05-09T14:56:11.425Z,23.80
2023-05-09T14:58:38.335Z,24.00
2023-05-09T15:01:05.081Z,24.10
2023-05-09T15:03:32.062Z,24.10
2023-05-09T15:05:59.152Z,24.30
2023-05-09T15:08:26.007Z,24.30
2023-05-09T15:10:52.873Z,24.30
2023-05-09T15:13:19.709Z,24.30
2023-05-09T15:15:46.461Z,24.30
2023-05-09T15:18:15.447Z,24.10
2023-05-09T15:20:42.623Z,24.00
2023-05-09T15:23:09.517Z,23.80
2023-05-09T15:25:36.217Z,23.90
2023-05-09T15:28:02.967Z,23.80
2023-05-09T15:30:29.671Z,23.90
2023-05-09T15:32:56.653Z,23.90
2023-05-09T15:35:23.474Z,24.00
2023-05-09T15:37:50.327Z,24.20
2023-05-09T15:40:17.197Z,24.30
2023-05-09T15:42:44.023Z,24.60
2023-05-09T15:45:10.772Z,24.50
2023-05-09T15:47:37.468Z,24.70
2023-05-09T15:50:04.509Z,24.70
2023-05-09T15:52:31.276Z,24.80
2023-05-09T15:54:58.109Z,24.80
2023-05-09T15:57:25.031Z,25.10
2023-05-09T15:59:55.015Z,25.40
2023-05-09T16:02:23.030Z,25.70
2023-05-09T16:04:49.805Z,25.70
2023-05-09T16:07:16.547Z,25.90
2023-05-09T16:09:43.518Z,26.90
2023-05-09T16:12:10.302Z,28.50
2023-05-09T16:14:36.985Z,29.70
2023-05-09T16:17:03.664Z,30.80
2023-05-09T16:19:30.954Z,29.80
2023-05-09T16:21:57.654Z,28.30
2023-05-09T16:24:24.717Z,26.90
2023-05-09T16:26:51.348Z,25.80
2023-05-09T16:29:17.971Z,25.50
2023-05-09T16:31:44.957Z,26.60
2023-05-09T16:34:11.997Z,28.20
2023-05-09T16:36:39.418Z,27.60
2023-05-09T16:39:06.071Z,27.90
2023-05-09T16:41:32.835Z,26.50
2023-05-09T16:44:00.144Z,26.20
2023-05-09T16:46:26.768Z,27.20
2023-05-09T16:48:53.428Z,28.20
2023-05-09T16:51:20.069Z,28.00
2023-05-09T16:53:46.752Z,27.40
2023-05-09T16:56:13.604Z,26.40
2023-05-09T16:58:40.253Z,25.60
2023-05-09T17:01:07.066Z,24.50
2023-05-09T17:03:34.201Z,24.80
2023-05-09T17:06:00.795Z,23.10
2023-05-09T17:08:27.531Z,22.80
2023-05-09T17:10:54.121Z,22.70
2023-05-09T17:13:20.838Z,22.50
2023-05-09T17:15:47.629Z,22.30
2023-05-09T17:18:19.358Z,22.00
2023-05-09T17:20:52.352Z,21.90
2023-05-09T17:23:18.953Z,21.90
2023-05-09T17:25:45.546Z,21.80
2023-05-09T17:28:12.334Z,21.60
2023-05-09T17:30:39.551Z,21.70
2023-05-09T17:33:06.341Z,21.60
2023-05-09T17:35:33.032Z,21.60
2023-05-09T17:37:59.664Z,21.50
2023-05-09T17:40:26.405Z,21.60
2023-05-09T17:42:53.235Z,21.50
2023-05-09T17:45:20.753Z,21.50
2023-05-09T17:47:47.537Z,21.50
2023-05-09T17:50:16.955Z,21.40
2023-05-09T17:52:44.596Z,21.30
2023-05-09T17:55:11.606Z,21.30
2023-05-09T17:57:38.262Z,21.30
2023-05-09T18:00:09.036Z,21.30
2023-05-09T18:02:35.895Z,21.30
2023-05-09T18:05:02.626Z,21.00
2023-05-09T18:07:29.222Z,21.00
2023-05-09T18:09:55.936Z,21.00
2023-05-09T18:12:22.679Z,21.10
2023-05-09T18:14:49.332Z,21.10
2023-05-09T18:17:16.038Z,21.10
2023-05-09T18:19:42.772Z,21.10
2023-05-09T18:22:09.422Z,21.10
2023-05-09T18:24:36.783Z,21.00
2023-05-09T18:27:04.214Z,20.90
2023-05-09T18:29:30.870Z,20.90
2023-05-09T18:31:57.727Z,20.80
2023-05-09T18:34:25.533Z,20.70
2023-05-09T18:36:52.562Z,20.60
2023-05-09T18:39:19.330Z,20.60
2023-05-09T18:41:46.025Z,20.50
2023-05-09T18:44:12.701Z,20.40
2023-05-09T18:46:39.371Z,20.30
2023-05-09T18:49:06.251Z,20.40
2023-05-09T18:51:35.652Z,20.30
2023-05-09T18:54:03.003Z,20.30
2023-05-09T18:56:29.674Z,20.40
2023-05-09T18:58:56.487Z,20.20
2023-05-09T19:01:24.251Z,20.30
2023-05-09T19:03:54.360Z,20.30
2023-05-09T19:06:21.933Z,20.30
2023-05-09T19:08:48.669Z,20.30
2023-05-09T19:11:16.049Z,20.20
2023-05-09T19:13:48.487Z,20.10
2023-05-09T19:16:17.160Z,19.00
2023-05-09T19:18:44.008Z,20.00
2023-05-09T19:21:13.067Z,20.00
2023-05-09T19:23:39.772Z,19.80
2023-05-09T19:26:06.407Z,19.60
2023-05-09T19:28:34.415Z,19.70
2023-05-09T19:31:02.213Z,19.70
2023-05-09T19:33:28.901Z,19.70
2023-05-09T19:35:55.716Z,19.70
2023-05-09T19:38:22.623Z,19.70
2023-05-09T19:40:49.914Z,19.80
2023-05-09T19:43:16.793Z,19.80
2023-05-09T19:45:43.464Z,19.60
2023-05-09T19:48:15.469Z,19.70
2023-05-09T19:50:43.053Z,19.50
2023-05-09T19:53:09.865Z,19.50
2023-05-09T19:55:37.160Z,19.60
2023-05-09T19:58:04.025Z,19.50
2023-05-09T20:00:31.899Z,19.50
2023-05-09T20:02:58.794Z,19.50
2023-05-09T20:05:25.642Z,19.40
2023-05-09T20:07:52.293Z,19.40
2023-05-09T20:10:18.921Z,19.20
2023-05-09T20:12:45.688Z,19.30
2023-05-09T20:15:12.586Z,19.20
2023-05-09T20:17:39.358Z,19.20
2023-05-09T20:20:06.836Z,19.20
2023-05-09T20:22:33.583Z,19.10
2023-05-09T20:25:00.247Z,19.00
2023-05-09T20:27:26.924Z,17.30
2023-05-09T20:29:53.794Z,19.20
2023-05-09T20:32:22.246Z,19.20
2023-05-09T20:34:48.975Z,19.20
2023-05-09T20:37:16.012Z,19.20
2023-05-09T20:39:42.736Z,19.20
2023-05-09T20:42:09.483Z,19.10
2023-05-09T20:44:37.677Z,19.00
2023-05-09T20:47:04.738Z,18.90
2023-05-09T20:49:31.678Z,18.90
2023-05-09T20:51:58.439Z,19.00
2023-05-09T20:54:25.749Z,19.00
2023-05-09T20:56:52.557Z,19.00
2023-05-09T20:59:19.162Z,18.80
2023-05-09T21:01:45.845Z,18.70
2023-05-09T21:04:12.501Z,18.70
2023-05-09T21:06:39.193Z,18.70
2023-05-09T21:09:06.228Z,18.60
2023-05-09T21:11:32.918Z,18.60
2023-05-09T21:13:59.583Z,18.70
2023-05-09T21:16:26.541Z,18.90
2023-05-09T21:18:53.235Z,18.90
2023-05-09T21:21:19.883Z,18.70
2023-05-09T21:23:46.518Z,18.60
2023-05-09T21:26:13.176Z,18.60
2023-05-09T21:28:39.775Z,18.70
2023-05-09T21:31:07.640Z,18.60
2023-05-09T21:33:36.287Z,18.60
2023-05-09T21:36:02.937Z,18.50
2023-05-09T21:38:29.746Z,18.40
2023-05-09T21:40:56.586Z,18.30
2023-05-09T21:43:23.219Z,18.30
2023-05-09T21:45:49.831Z,18.30
2023-05-09T21:48:16.572Z,18.20
2023-05-09T21:50:46.286Z,18.10
2023-05-09T21:53:13.561Z,18.00
2023-05-09T21:55:40.652Z,17.80
2023-05-09T21:58:07.261Z,17.70
2023-05-09T22:00:33.925Z,17.70
2023-05-09T22:03:01.108Z,17.60
2023-05-09T22:05:28.295Z,17.60
2023-05-09T22:07:54.903Z,17.60
2023-05-09T22:10:21.568Z,17.50
2023-05-09T22:12:48.345Z,17.50
2023-05-09T22:15:15.226Z,17.40
2023-05-09T22:17:41.948Z,17.40
2023-05-09T22:20:09.331Z,17.40
2023-05-09T22:22:36.021Z,17.30
2023-05-09T22:25:06.621Z,17.40
2023-05-09T22:27:33.266Z,17.40
2023-05-09T22:29:59.962Z,17.40
2023-05-09T22:32:26.664Z,17.30
2023-05-09T22:34:54.171Z,17.30
2023-05-09T22:37:20.871Z,17.20
2023-05-09T22:39:47.532Z,17.00
2023-05-09T22:42:14.214Z,17.00
2023-05-09T22:44:40.926Z,17.00
2023-05-09T22:47:08.111Z,16.90
2023-05-09T22:49:35.521Z,16.90
2023-05-09T22:52:02.575Z,17.00
2023-05-09T22:54:29.188Z,17.00
2023-05-09T22:56:55.798Z,17.00
2023-05-09T22:59:22.645Z,17.00
2023-05-09T23:01:49.582Z,17.00
2023-05-09T23:04:16.368Z,16.80
2023-05-09T23:06:42.981Z,16.80
2023-05-09T23:09:10.551Z,16.80
2023-05-09T23:11:37.614Z,16.70
2023-05-09T23:14:04.327Z,16.70
2023-05-09T23:16:30.954Z,16.70
2023-05-09T23:18:57.634Z,16.70
2023-05-09T23:21:24.232Z,16.70
2023-05-09T23:23:50.889Z,16.50
2023-05-09T23:26:17.511Z,16.50
2023-05-09T23:28:44.137Z,16.60
2023-05-09T23:31:10.889Z,16.60
2023-05-09T23:33:37.577Z,16.60
2023-05-09T23:36:04.504Z,16.60
2023-05-09T23:38:31.195Z,16.50
2023-05-09T23:40:59.884Z,16.50
2023-05-09T23:43:26.649Z,16.50
2023-05-09T23:45:53.221Z,16.50
2023-05-09T23:48:19.914Z,16.50
2023-05-09T23:50:46.557Z,16.40
2023-05-09T23:53:13.558Z,16.40
2023-05-09T23:55:40.207Z,16.40
2023-05-09T23:58:06.805Z,14.90
